PLU weather

Pampulha - Carlos Drummond de Andrade Airport
Belo Horizonte, Minas Gerais, Brazil

Public forecast

Using degrees Celsius for public forecast. Weather courtesy of forecast.io.

METAR (pilot weather report)

Retrieved 2019/09/23 06:00 UTC (17 minutes ago):

SBBH 230600Z 12013KT 9999 SCT030 21/15 Q1021

TAF (pilot weather forecast)

Forecast is more than 12 hours old.

Retrieved 2012/03/26 18:12 UTC (7 years ago):

TAF SBBH 261639Z 2618/2706 09005KT 9999 SCT030 TX28/2618Z TN20/2705Z PROB30 2619/2624 8000 TSRA BKN035 FEW045CB RMK PGG